createdAt,value
2023-11-20T00:04:36.255Z,6.05
2023-11-20T00:09:38.995Z,6.90
2023-11-20T00:14:44.583Z,5.75
2023-11-20T00:19:47.309Z,6.97
2023-11-20T00:24:50.153Z,6.18
2023-11-20T00:29:52.791Z,5.45
2023-11-20T00:34:55.414Z,5.72
2023-11-20T00:39:58.295Z,5.90
2023-11-20T00:45:01.020Z,7.03
2023-11-20T00:50:05.572Z,6.05
2023-11-20T00:55:12.522Z,7.20
2023-11-20T01:00:16.283Z,6.80
2023-11-20T01:05:20.085Z,6.57
2023-11-20T01:10:22.806Z,6.63
2023-11-20T01:15:26.157Z,5.63
2023-11-20T01:20:28.992Z,7.03
2023-11-20T01:25:33.275Z,6.68
2023-11-20T01:30:36.055Z,7.15
2023-11-20T01:35:39.195Z,8.23
2023-11-20T01:40:41.940Z,8.55
2023-11-20T01:45:44.974Z,6.50
2023-11-20T01:50:47.681Z,7.07
2023-11-20T01:55:50.999Z,8.55
2023-11-20T02:00:54.521Z,9.50
2023-11-20T02:05:57.442Z,7.50
2023-11-20T02:11:03.491Z,7.20
2023-11-20T02:16:07.632Z,7.25
2023-11-20T02:21:10.486Z,8.85
2023-11-20T02:26:41.297Z,6.73
2023-11-20T02:31:44.635Z,10.02
2023-11-20T02:36:48.692Z,10.93
2023-11-20T02:41:52.074Z,8.82
2023-11-20T02:46:54.791Z,7.10
2023-11-20T02:51:57.521Z,9.90
2023-11-20T02:57:00.945Z,7.07
2023-11-20T03:02:04.023Z,6.90
2023-11-20T03:07:08.471Z,9.18
2023-11-20T03:12:14.204Z,9.65
2023-11-20T03:17:16.874Z,8.17
2023-11-20T03:22:19.741Z,9.48
2023-11-20T03:27:22.460Z,10.27
2023-11-20T03:32:25.541Z,8.32
2023-11-20T03:37:28.372Z,10.55
2023-11-20T03:42:31.320Z,7.87
2023-11-20T03:47:34.104Z,8.43
2023-11-20T03:52:36.832Z,9.98
2023-11-20T03:57:39.902Z,8.48
2023-11-20T04:02:43.333Z,8.52
2023-11-20T04:07:45.971Z,9.53
2023-11-20T04:12:49.031Z,7.90
2023-11-20T04:17:51.890Z,9.38
2023-11-20T04:22:56.689Z,11.45
2023-11-20T04:27:59.448Z,9.02
2023-11-20T04:33:02.558Z,11.10
2023-11-20T04:38:05.651Z,10.35
2023-11-20T04:43:09.785Z,11.32
2023-11-20T04:48:12.434Z,9.75
2023-11-20T04:53:15.187Z,10.05
2023-11-20T04:58:23.401Z,9.97
2023-11-20T05:03:26.384Z,9.68
2023-11-20T05:08:29.065Z,9.82
2023-11-20T05:13:31.895Z,10.30
2023-11-20T05:18:35.457Z,9.70
2023-11-20T05:23:38.238Z,9.30
2023-11-20T05:28:40.860Z,13.43
2023-11-20T05:33:43.976Z,9.70
2023-11-20T05:38:47.879Z,9.32
2023-11-20T05:43:50.556Z,10.75
2023-11-20T05:48:53.761Z,9.53
2023-11-20T05:53:56.931Z,10.43
2023-11-20T05:59:02.831Z,10.75
2023-11-20T06:04:10.826Z,9.63
2023-11-20T06:09:14.187Z,10.95
2023-11-20T06:14:17.810Z,10.63
2023-11-20T06:19:21.320Z,10.75
2023-11-20T06:24:24.120Z,9.63
2023-11-20T06:29:26.886Z,9.45
2023-11-20T06:34:29.914Z,10.73
2023-11-20T06:39:32.633Z,11.40
2023-11-20T06:44:39.638Z,10.88
2023-11-20T06:49:42.964Z,10.52
2023-11-20T06:54:46.798Z,9.95
2023-11-20T06:59:49.604Z,10.48
2023-11-20T07:04:52.609Z,9.73
2023-11-20T07:09:58.690Z,12.98
2023-11-20T07:15:01.603Z,10.18
2023-11-20T07:20:05.384Z,9.27
2023-11-20T07:25:09.189Z,10.15
2023-11-20T07:30:13.194Z,9.10
2023-11-20T07:35:16.083Z,10.35
2023-11-20T07:40:20.040Z,9.65
2023-11-20T07:45:22.894Z,9.05
2023-11-20T07:50:26.170Z,9.63
2023-11-20T07:55:29.123Z,12.33
2023-11-20T08:00:31.767Z,9.82
2023-11-20T08:05:44.045Z,10.57
2023-11-20T08:10:51.183Z,8.43
2023-11-20T08:15:53.890Z,11.30
2023-11-20T08:20:57.316Z,8.10
2023-11-20T08:26:00.332Z,8.90
2023-11-20T08:31:03.282Z,10.38
2023-11-20T08:36:10.439Z,9.93
2023-11-20T08:41:13.242Z,7.57
2023-11-20T08:46:16.414Z,7.77
2023-11-20T08:51:21.809Z,8.05
2023-11-20T08:56:24.413Z,10.00
2023-11-20T09:01:35.638Z,8.30
2023-11-20T09:06:38.597Z,7.47
2023-11-20T09:11:41.168Z,9.17
2023-11-20T09:16:45.082Z,7.32
2023-11-20T09:21:51.072Z,8.00
2023-11-20T09:26:53.665Z,6.55
2023-11-20T09:31:56.366Z,7.47
2023-11-20T09:36:59.032Z,10.00
2023-11-20T09:42:01.800Z,13.57
2023-11-20T09:47:05.312Z,10.00
2023-11-20T09:52:09.593Z,8.30
2023-11-20T09:57:13.483Z,8.50
2023-11-20T10:02:16.524Z,7.90
2023-11-20T10:07:24.104Z,7.80
2023-11-20T10:12:29.650Z,9.65
2023-11-20T10:17:33.459Z,8.63
2023-11-20T10:22:37.033Z,10.30
2023-11-20T10:27:39.674Z,8.63
2023-11-20T10:32:43.399Z,10.23
2023-11-20T10:37:54.349Z,12.63
2023-11-20T10:42:59.438Z,10.33
2023-11-20T10:48:03.577Z,9.07
2023-11-20T10:53:07.885Z,8.83
2023-11-20T10:58:15.957Z,10.00
2023-11-20T11:03:20.525Z,8.93
2023-11-20T11:08:24.687Z,10.00
2023-11-20T11:13:33.935Z,8.40
2023-11-20T11:18:37.436Z,9.10
2023-11-20T11:23:47.702Z,11.45
2023-11-20T11:29:03.459Z,9.75
2023-11-20T11:34:38.972Z,9.67
2023-11-20T11:39:52.886Z,8.50
2023-11-20T11:45:13.124Z,11.53
2023-11-20T11:50:21.659Z,10.60
2023-11-20T11:55:27.010Z,10.85
2023-11-20T12:00:32.671Z,11.50
2023-11-20T12:05:57.365Z,11.93
2023-11-20T12:11:00.391Z,9.70
2023-11-20T12:16:08.967Z,11.00
2023-11-20T12:21:12.118Z,11.30
2023-11-20T12:26:17.581Z,11.97
2023-11-20T12:31:20.298Z,13.23
2023-11-20T12:36:26.302Z,14.00
2023-11-20T12:41:30.984Z,12.18
2023-11-20T12:46:36.546Z,12.07
2023-11-20T12:51:39.186Z,10.70
2023-11-20T12:56:41.903Z,15.88
2023-11-20T13:01:44.771Z,19.23
2023-11-20T13:06:49.267Z,13.52
2023-11-20T13:11:54.261Z,13.68
2023-11-20T13:16:56.969Z,16.67
2023-11-20T13:22:03.528Z,17.17
2023-11-20T13:27:06.205Z,20.77
2023-11-20T13:32:19.257Z,21.42
2023-11-20T13:37:21.937Z,19.33
2023-11-20T13:42:25.316Z,23.47
2023-11-20T13:47:28.156Z,19.80
2023-11-20T13:52:31.427Z,26.03
2023-11-20T13:57:34.285Z,21.83
2023-11-20T14:02:37.023Z,23.10
2023-11-20T14:07:39.857Z,18.30
2023-11-20T14:12:45.388Z,32.17
2023-11-20T14:17:52.836Z,23.07
2023-11-20T14:22:56.661Z,44.10
2023-11-20T14:28:00.113Z,35.47
2023-11-20T14:33:03.158Z,24.43
2023-11-20T14:38:06.267Z,33.53
2023-11-20T14:43:10.127Z,32.07
2023-11-20T14:48:13.090Z,29.35
2023-11-20T14:53:16.319Z,44.38
2023-11-20T14:58:19.025Z,19.03
2023-11-20T15:03:24.038Z,33.42
2023-11-20T15:08:29.526Z,24.77
2023-11-20T15:13:32.179Z,22.25
2023-11-20T15:18:35.293Z,16.60
2023-11-20T15:23:38.048Z,33.40
2023-11-20T15:28:40.584Z,25.73
2023-11-20T15:33:44.799Z,22.17
2023-11-20T15:38:47.347Z,22.90
2023-11-20T15:43:50.166Z,22.73
2023-11-20T15:48:53.245Z,24.90
2023-11-20T15:53:55.995Z,42.00
2023-11-20T15:58:58.682Z,35.73
2023-11-20T16:04:04.728Z,27.42
2023-11-20T16:09:07.772Z,16.00
2023-11-20T16:14:11.639Z,14.40
2023-11-20T16:19:14.451Z,33.97
2023-11-20T16:24:17.996Z,26.00
2023-11-20T16:29:20.708Z,18.02
2023-11-20T16:34:23.354Z,34.08
2023-11-20T16:39:26.006Z,54.30
2023-11-20T16:44:28.902Z,19.65
2023-11-20T16:49:33.953Z,19.60
2023-11-20T16:54:38.424Z,24.88
2023-11-20T16:59:42.924Z,22.13
2023-11-20T17:04:45.687Z,45.17
2023-11-20T17:09:49.289Z,39.75
2023-11-20T17:14:51.972Z,63.17
2023-11-20T17:19:54.641Z,64.20
2023-11-20T17:24:58.275Z,38.90
2023-11-20T17:30:02.521Z,28.27
2023-11-20T17:35:09.859Z,39.67
2023-11-20T17:40:14.482Z,31.83
2023-11-20T17:45:18.456Z,20.90
2023-11-20T17:50:21.761Z,26.92
2023-11-20T17:55:24.411Z,19.23
2023-11-20T18:00:27.178Z,16.70
2023-11-20T18:05:30.222Z,16.83
2023-11-20T18:10:33.059Z,19.40
2023-11-20T18:15:35.944Z,19.90
2023-11-20T18:20:38.587Z,19.13
2023-11-20T18:25:46.453Z,21.38
2023-11-20T18:30:51.274Z,19.50
2023-11-20T18:35:53.895Z,18.98
2023-11-20T18:40:56.589Z,19.25
2023-11-20T18:45:59.672Z,19.98
2023-11-20T18:51:02.559Z,23.30
2023-11-20T18:56:05.739Z,20.27
2023-11-20T19:01:08.775Z,25.02
2023-11-20T19:06:11.399Z,22.08
2023-11-20T19:11:14.060Z,21.07
2023-11-20T19:16:16.843Z,18.73
2023-11-20T19:21:19.565Z,21.60
2023-11-20T19:26:23.853Z,21.00
2023-11-20T19:31:26.664Z,21.75
2023-11-20T19:36:29.370Z,18.40
2023-11-20T19:41:32.514Z,18.80
2023-11-20T19:46:35.206Z,19.93
2023-11-20T19:51:38.987Z,19.45
2023-11-20T19:56:42.855Z,18.25
2023-11-20T20:01:46.124Z,19.17
2023-11-20T20:06:49.724Z,17.38
2023-11-20T20:11:53.012Z,16.87
2023-11-20T20:17:01.042Z,17.85
2023-11-20T20:22:03.925Z,18.40
2023-11-20T20:27:07.682Z,17.93
2023-11-20T20:32:10.672Z,18.15
2023-11-20T20:37:13.403Z,19.33
2023-11-20T20:42:16.096Z,18.38
2023-11-20T20:47:19.000Z,20.13
2023-11-20T20:52:21.860Z,18.83
2023-11-20T20:57:24.468Z,17.23
2023-11-20T21:02:27.267Z,16.63
2023-11-20T21:07:30.043Z,19.27
2023-11-20T21:12:32.631Z,17.45
2023-11-20T21:17:35.521Z,16.97
2023-11-20T21:22:38.685Z,17.73
2023-11-20T21:27:41.354Z,16.93
2023-11-20T21:32:44.258Z,19.75
2023-11-20T21:37:47.260Z,15.45
2023-11-20T21:42:50.639Z,15.50
2023-11-20T21:47:53.246Z,13.75
2023-11-20T21:52:57.988Z,13.93
2023-11-20T21:58:02.229Z,14.40
2023-11-20T22:03:04.972Z,14.40
2023-11-20T22:08:08.467Z,16.27
2023-11-20T22:13:11.179Z,16.48
2023-11-20T22:18:14.236Z,18.93
2023-11-20T22:23:16.854Z,18.80
2023-11-20T22:28:19.538Z,19.60
2023-11-20T22:33:22.336Z,17.63
2023-11-20T22:38:25.150Z,15.82
2023-11-20T22:43:27.921Z,14.70
2023-11-20T22:53:50.328Z,14.25
2023-11-20T22:58:52.836Z,15.23
2023-11-20T23:03:55.686Z,17.13
2023-11-20T23:08:58.347Z,17.27
2023-11-20T23:14:01.093Z,15.95
2023-11-20T23:19:05.033Z,18.45
2023-11-20T23:24:10.080Z,19.43
2023-11-20T23:29:15.223Z,23.98
2023-11-20T23:34:17.962Z,19.67
2023-11-20T23:39:22.179Z,14.50
2023-11-20T23:44:26.510Z,15.65
2023-11-20T23:49:29.293Z,13.55
2023-11-20T23:54:32.034Z,12.77
2023-11-20T23:59:35.236Z,12.23
